Terminal Aerodrome Forecast
Issued by NWS Cleveland, OH

Home | Current Version | Previous Version | Graphics & Text | Print | Product List | Glossary On
Versions: 1 2 3 4 5 6 7 8 9 10 11 12 13 14 15 16 17 18 19 20 21 22 23 24 25 26 27 28 29 30
000
FTUS41 KCLE 081500 AAA
TAFCLE
TAF AMD
KCLE 081545Z 0816/0918 22014KT 6SM -SHRA BR SCT012 BKN035 OVC100
      TEMPO 0817/0818 26020G30KT 2SM -TSRA BR SCT008 OVC012CB
     FM081800 25012G22KT P6SM VCSH BKN020 OVC040
     FM082100 25014G22KT P6SM SCT025 OVC035
     FM090200 26010KT P6SM SCT030 BKN200=

USA.gov is the U.S. government's official web portal to all federal, state and local government web resources and services.